Aérodrome :
LOGIN :

S'inscrire | Disclaimer

   EN    FR    IT 

 










Légende :    VFR   VFR Marginal   IFR   IFR Intensif   IFR Très Intensif
Visi : 
Plafond : 
>= 8 km
>= 3000ft
5 à 8 km
1000 à 3000 ft
1500m à 5 km
500 à 1000 ft
800 à 1500m
200 à 500 ft
< 800m
< 200 ft
Symboles :   Orages  Brouillard  Fortes neiges  Fortes précipitations  Vent > 20 kt
SIGMETs :   Divers  Orages  Givrage  Turbulence  Onde Orograph.  Cendres Volcan.







- Altitude de l'aérodrome : 218 ft
- Code IATA : LBG
- Voir les cartes d'approche


LFPB - Paris / Le Bourget

DERNIER METAR :
  • 171600Z AUTO 15007KT 9999 -RA FEW014 06/04 Q1024 BECMG 4000 BR BKN005

METARs EXPIRÉS :
  • 171530Z AUTO 15008KT 9999 FEW014 07/05 Q1024 BECMG 4000 BR BKN005
  • 171500Z AUTO 16009KT CAVOK 08/05 Q1024 BECMG 4000 BR BKN005
  • 171430Z AUTO 17008KT 9999 FEW018 09/05 Q1023 BECMG 4000 BR BKN005
  • 171400Z AUTO 21008KT CAVOK 10/06 Q1023 NOSIG
  • 171330Z AUTO 19008KT 9999 FEW019 10/05 Q1023 NOSIG

TAF AMD TAF LFPB
Valide du 17 à 16h jusqu'au 18 à 12h UTC


171611Z 1716/1812 17008KT 7000 BKN005
BECMG 1716/1717 4000 BR BKN004
PROB40
TEMPO 1717/1806 2000 BR BKN003
PROB30
TEMPO 1719/1806 0800 BCFG BKN001
BECMG 1722/1724 16010KT
BECMG 1805/1807 6000 NSW SCT008 BKN010
BECMG 1807/1809 9999 SCT012
BECMG 1809/1811 CAVOK
ATIS : +33 1 48 62 43 92
Pas de NOTAMs connus pour ce terrain.



MET'MAP, la Météo Aéronautique d'un coup d'oeil ! - Copyright ORBIFLY Décembre 2007 - Disclaimer

ORBIFLY MET'MAP TEAM :

Programmation & Développement : Alexandra Zaïnal
Conception & Développement : Baudouin d'Aumeries
Co-Programmation & Développement : Marc-Olivier Méhu
Soutien technique & logistique : Manuel Goepfert

Contact : metmap@orbifly.com




SOURCES & CREDITS :

   NOAA